createdAt,value
2019-04-07T00:09:12.537Z,983.54
2019-04-07T00:19:12.497Z,983.55
2019-04-07T00:29:12.705Z,983.64
2019-04-07T00:39:12.572Z,983.71
2019-04-07T00:49:13.237Z,983.61
2019-04-07T00:59:12.520Z,983.50
2019-04-07T01:09:12.550Z,983.45
2019-04-07T01:19:12.520Z,983.37
2019-04-07T01:29:12.479Z,983.56
2019-04-07T01:39:12.978Z,983.65
2019-04-07T01:49:12.916Z,983.53
2019-04-07T01:59:12.561Z,983.55
2019-04-07T02:09:12.566Z,983.57
2019-04-07T02:19:12.538Z,983.48
2019-04-07T02:29:12.631Z,983.44
2019-04-07T02:39:13.116Z,983.37
2019-04-07T02:49:12.518Z,983.38
2019-04-07T02:59:12.990Z,983.31
2019-04-07T03:09:12.870Z,983.39
2019-04-07T03:19:13.164Z,983.62
2019-04-07T03:29:12.550Z,983.59
2019-04-07T03:39:12.560Z,983.50
2019-04-07T03:49:13.435Z,983.54
2019-04-07T03:59:12.979Z,983.50
2019-04-07T04:09:13.874Z,983.47
2019-04-07T04:19:13.063Z,983.54
2019-04-07T04:29:12.698Z,983.52
2019-04-07T04:39:13.063Z,983.65
2019-04-07T04:49:12.533Z,983.69
2019-04-07T04:59:12.823Z,983.69
2019-04-07T05:09:13.320Z,983.91
2019-04-07T05:19:12.593Z,983.96
2019-04-07T05:29:12.510Z,984.14
2019-04-07T05:39:13.343Z,984.15
2019-04-07T05:49:15.648Z,984.20
2019-04-07T05:59:13.856Z,984.29
2019-04-07T06:09:12.511Z,984.41
2019-04-07T06:19:12.533Z,984.29
2019-04-07T06:29:12.467Z,984.20
2019-04-07T06:39:13.563Z,984.20
2019-04-07T06:49:13.756Z,984.19
2019-04-07T06:59:15.338Z,984.23
2019-04-07T07:09:14.095Z,984.15
2019-04-07T07:19:12.998Z,984.19
2019-04-07T07:29:14.669Z,984.23
2019-04-07T07:39:13.524Z,984.23
2019-04-07T07:49:12.500Z,984.31
2019-04-07T07:59:13.425Z,984.34
2019-04-07T08:09:15.225Z,984.37
2019-04-07T08:19:12.541Z,984.45
2019-04-07T08:29:13.019Z,984.59
2019-04-07T08:39:21.484Z,984.57
2019-04-07T08:49:12.771Z,984.50
2019-04-07T08:59:16.201Z,984.49
2019-04-07T09:09:12.562Z,984.49
2019-04-07T09:19:12.534Z,984.59
2019-04-07T09:29:12.765Z,984.48
2019-04-07T09:39:13.197Z,984.56
2019-04-07T09:49:12.529Z,984.62
2019-04-07T09:59:16.778Z,984.51
2019-04-07T10:09:12.695Z,984.53
2019-04-07T10:19:13.086Z,984.51
2019-04-07T10:29:12.544Z,984.58
2019-04-07T10:39:13.039Z,984.36
2019-04-07T10:49:12.540Z,984.32
2019-04-07T10:59:12.634Z,984.51
2019-04-07T11:09:13.206Z,984.51
2019-04-07T11:19:12.964Z,984.60
2019-04-07T11:29:13.198Z,984.65
2019-04-07T11:39:13.502Z,984.58
2019-04-07T11:49:13.392Z,984.62
2019-04-07T11:59:13.376Z,984.66
2019-04-07T12:09:13.090Z,984.68
2019-04-07T12:19:12.688Z,984.77
2019-04-07T12:29:12.601Z,984.71
2019-04-07T12:39:16.233Z,984.69
2019-04-07T12:49:13.281Z,984.70
2019-04-07T12:59:15.850Z,984.73
2019-04-07T13:09:12.578Z,984.71
2019-04-07T13:19:14.084Z,984.68
2019-04-07T13:29:12.938Z,984.70
2019-04-07T13:39:12.619Z,984.71
2019-04-07T13:49:12.819Z,984.64
2019-04-07T13:59:13.815Z,984.57
2019-04-07T14:09:12.592Z,984.57
2019-04-07T14:19:13.432Z,984.58
2019-04-07T14:29:13.157Z,984.55
2019-04-07T14:39:12.827Z,984.51
2019-04-07T14:49:15.580Z,984.46
2019-04-07T14:59:12.897Z,984.50
2019-04-07T15:09:13.318Z,984.53
2019-04-07T15:19:13.672Z,984.50
2019-04-07T15:29:12.685Z,984.54
2019-04-07T15:39:12.942Z,984.54
2019-04-07T15:49:12.716Z,984.57
2019-04-07T15:59:12.600Z,984.64
2019-04-07T16:09:22.378Z,984.66
2019-04-07T16:19:18.757Z,984.71
2019-04-07T16:29:15.498Z,984.66
2019-04-07T16:39:13.536Z,984.83
2019-04-07T16:49:13.668Z,984.88
2019-04-07T16:59:13.472Z,984.95
2019-04-07T17:09:13.237Z,985.01
2019-04-07T17:19:13.136Z,985.15
2019-04-07T17:29:17.148Z,985.12
2019-04-07T17:39:13.250Z,985.21
2019-04-07T17:49:13.519Z,985.28
2019-04-07T17:59:15.492Z,985.42
2019-04-07T18:09:15.020Z,985.48
2019-04-07T18:19:14.137Z,985.59
2019-04-07T18:29:13.544Z,985.74
2019-04-07T18:39:15.942Z,985.83
2019-04-07T18:49:12.769Z,985.97
2019-04-07T18:59:12.932Z,986.09
2019-04-07T19:09:12.608Z,986.23
2019-04-07T19:19:12.739Z,986.31
2019-04-07T19:29:12.684Z,986.45
2019-04-07T19:39:12.662Z,986.49
2019-04-07T19:49:15.324Z,986.57
2019-04-07T19:59:12.772Z,986.68
2019-04-07T20:09:12.801Z,986.72
2019-04-07T20:19:13.043Z,986.86
2019-04-07T20:29:12.647Z,986.95
2019-04-07T20:39:12.698Z,987.07
2019-04-07T20:49:13.633Z,987.05
2019-04-07T20:59:12.643Z,987.16
2019-04-07T21:09:14.079Z,987.14
2019-04-07T21:19:12.629Z,987.26
2019-04-07T21:29:12.932Z,987.35
2019-04-07T21:39:12.938Z,987.42
2019-04-07T21:49:12.647Z,987.50
2019-04-07T21:59:12.874Z,987.52
2019-04-07T22:09:14.711Z,987.62
2019-04-07T22:19:15.327Z,987.78
2019-04-07T22:29:12.702Z,987.78
2019-04-07T22:39:12.687Z,987.90
2019-04-07T22:49:13.497Z,987.92
2019-04-07T22:59:12.806Z,987.94
2019-04-07T23:09:13.438Z,987.99
2019-04-07T23:19:12.575Z,987.84
2019-04-07T23:29:12.687Z,987.84
2019-04-07T23:39:13.122Z,987.89
2019-04-07T23:49:13.131Z,987.87
2019-04-07T23:59:12.691Z,987.96
